sensor_id;sensor_type;location;lat;lon;timestamp;pressure;altitude;pressure_sealevel;temperature;humidity
77877;BME280;67251;50.844;7.978;2024-01-15T00:00:38;97462.50;;;-3.01;100.00
77877;BME280;67251;50.844;7.978;2024-01-15T00:03:04;97455.03;;;-2.96;100.00
77877;BME280;67251;50.844;7.978;2024-01-15T00:05:29;97440.00;;;-2.94;100.00
77877;BME280;67251;50.844;7.978;2024-01-15T00:07:54;97444.25;;;-2.93;100.00
77877;BME280;67251;50.844;7.978;2024-01-15T00:10:20;97446.72;;;-2.92;100.00
77877;BME280;67251;50.844;7.978;2024-01-15T00:12:45;97444.78;;;-2.90;100.00
77877;BME280;67251;50.844;7.978;2024-01-15T00:15:10;97433.84;;;-2.85;100.00
77877;BME280;67251;50.844;7.978;2024-01-15T00:17:36;97437.81;;;-2.81;100.00
77877;BME280;67251;50.844;7.978;2024-01-15T00:20:01;97425.75;;;-2.74;100.00
77877;BME280;67251;50.844;7.978;2024-01-15T00:22:27;97430.53;;;-2.69;100.00
77877;BME280;67251;50.844;7.978;2024-01-15T00:24:52;97427.78;;;-2.68;100.00
77877;BME280;67251;50.844;7.978;2024-01-15T00:27:18;97424.03;;;-2.65;100.00
77877;BME280;67251;50.844;7.978;2024-01-15T00:29:43;97419.59;;;-2.65;100.00
77877;BME280;67251;50.844;7.978;2024-01-15T00:32:08;97418.31;;;-2.61;100.00
77877;BME280;67251;50.844;7.978;2024-01-15T00:34:34;97420.66;;;-2.58;100.00
77877;BME280;67251;50.844;7.978;2024-01-15T00:36:59;97415.78;;;-2.52;100.00
77877;BME280;67251;50.844;7.978;2024-01-15T00:39:24;97412.16;;;-2.51;100.00
77877;BME280;67251;50.844;7.978;2024-01-15T00:41:51;97416.13;;;-2.47;100.00
77877;BME280;67251;50.844;7.978;2024-01-15T00:44:16;97413.22;;;-2.44;100.00
77877;BME280;67251;50.844;7.978;2024-01-15T00:46:45;97409.59;;;-2.43;100.00
77877;BME280;67251;50.844;7.978;2024-01-15T00:49:12;97407.00;;;-2.43;100.00
77877;BME280;67251;50.844;7.978;2024-01-15T00:51:38;97393.72;;;-2.42;100.00
77877;BME280;67251;50.844;7.978;2024-01-15T00:54:03;97391.94;;;-2.41;100.00
77877;BME280;67251;50.844;7.978;2024-01-15T00:56:29;97390.81;;;-2.39;100.00
77877;BME280;67251;50.844;7.978;2024-01-15T00:58:54;97384.59;;;-2.38;100.00
77877;BME280;67251;50.844;7.978;2024-01-15T01:01:19;97391.47;;;-2.37;100.00
77877;BME280;67251;50.844;7.978;2024-01-15T01:03:45;97379.19;;;-2.36;100.00
77877;BME280;67251;50.844;7.978;2024-01-15T01:06:10;97387.03;;;-2.36;100.00
77877;BME280;67251;50.844;7.978;2024-01-15T01:08:35;97388.84;;;-2.37;100.00
77877;BME280;67251;50.844;7.978;2024-01-15T01:11:01;97389.66;;;-2.36;100.00
77877;BME280;67251;50.844;7.978;2024-01-15T01:13:26;97383.47;;;-2.35;100.00
77877;BME280;67251;50.844;7.978;2024-01-15T01:15:51;97392.97;;;-2.34;100.00
77877;BME280;67251;50.844;7.978;2024-01-15T01:18:17;97386.75;;;-2.33;100.00
77877;BME280;67251;50.844;7.978;2024-01-15T01:20:42;97391.00;;;-2.32;100.00
77877;BME280;67251;50.844;7.978;2024-01-15T01:23:07;97387.38;;;-2.31;100.00
77877;BME280;67251;50.844;7.978;2024-01-15T01:25:33;97390.00;;;-2.31;100.00
77877;BME280;67251;50.844;7.978;2024-01-15T01:27:58;97393.47;;;-2.30;100.00
77877;BME280;67251;50.844;7.978;2024-01-15T01:30:23;97389.06;;;-2.30;100.00
77877;BME280;67251;50.844;7.978;2024-01-15T01:32:49;97389.06;;;-2.30;100.00
77877;BME280;67251;50.844;7.978;2024-01-15T01:35:14;97386.44;;;-2.30;100.00
77877;BME280;67251;50.844;7.978;2024-01-15T01:37:39;97391.69;;;-2.30;100.00
77877;BME280;67251;50.844;7.978;2024-01-15T01:40:05;97391.69;;;-2.30;100.00
77877;BME280;67251;50.844;7.978;2024-01-15T01:46:00;97385.44;;;-2.29;100.00
77877;BME280;67251;50.844;7.978;2024-01-15T01:48:26;97386.44;;;-2.30;100.00
77877;BME280;67251;50.844;7.978;2024-01-15T01:50:58;97393.47;;;-2.30;100.00
77877;BME280;67251;50.844;7.978;2024-01-15T01:53:26;97389.88;;;-2.29;100.00
77877;BME280;67251;50.844;7.978;2024-01-15T01:55:52;97390.69;;;-2.29;100.00
77877;BME280;67251;50.844;7.978;2024-01-15T01:58:19;97391.34;;;-2.27;100.00
77877;BME280;67251;50.844;7.978;2024-01-15T02:00:45;97385.97;;;-2.25;100.00
77877;BME280;67251;50.844;7.978;2024-01-15T02:03:11;97397.25;;;-2.25;100.00
77877;BME280;67251;50.844;7.978;2024-01-15T02:05:39;97396.94;;;-2.22;100.00
77877;BME280;67251;50.844;7.978;2024-01-15T02:08:04;97386.31;;;-2.20;100.00
77877;BME280;67251;50.844;7.978;2024-01-15T02:10:30;97391.91;;;-2.15;100.00
77877;BME280;67251;50.844;7.978;2024-01-15T02:12:55;97392.44;;;-2.12;100.00
77877;BME280;67251;50.844;7.978;2024-01-15T02:15:20;97389.63;;;-2.10;100.00
77877;BME280;67251;50.844;7.978;2024-01-15T02:18:05;97389.63;;;-2.10;100.00
77877;BME280;67251;50.844;7.978;2024-01-15T02:20:32;97379.00;;;-2.09;100.00
77877;BME280;67251;50.844;7.978;2024-01-15T02:25:32;97385.22;;;-2.10;100.00
77877;BME280;67251;50.844;7.978;2024-01-15T02:27:57;97383.56;;;-2.11;100.00
77877;BME280;67251;50.844;7.978;2024-01-15T02:30:24;97391.44;;;-2.11;100.00
77877;BME280;67251;50.844;7.978;2024-01-15T02:32:50;97386.19;;;-2.11;100.00
77877;BME280;67251;50.844;7.978;2024-01-15T02:35:16;97389.63;;;-2.10;100.00
77877;BME280;67251;50.844;7.978;2024-01-15T02:37:41;97398.00;;;-2.07;100.00
77877;BME280;67251;50.844;7.978;2024-01-15T02:40:07;97396.03;;;-2.04;100.00
77877;BME280;67251;50.844;7.978;2024-01-15T02:42:33;97398.66;;;-2.04;100.00
77877;BME280;67251;50.844;7.978;2024-01-15T02:44:58;97393.41;;;-2.04;100.00
77877;BME280;67251;50.844;7.978;2024-01-15T02:47:23;97392.78;;;-2.07;100.00
77877;BME280;67251;50.844;7.978;2024-01-15T02:49:49;97393.41;;;-2.04;100.00
77877;BME280;67251;50.844;7.978;2024-01-15T02:52:14;97395.22;;;-2.05;100.00
77877;BME280;67251;50.844;7.978;2024-01-15T02:54:39;97398.66;;;-2.04;100.00
77877;BME280;67251;50.844;7.978;2024-01-15T02:57:05;97391.44;;;-2.02;100.00
77877;BME280;67251;50.844;7.978;2024-01-15T02:59:30;97398.34;;;-2.01;100.00
77877;BME280;67251;50.844;7.978;2024-01-15T03:01:55;97404.41;;;-2.01;100.00
77877;BME280;67251;50.844;7.978;2024-01-15T03:04:21;97403.59;;;-2.01;100.00
77877;BME280;67251;50.844;7.978;2024-01-15T03:06:46;97405.22;;;-2.00;100.00
77877;BME280;67251;50.844;7.978;2024-01-15T03:09:11;97403.75;;;-2.03;100.00
77877;BME280;67251;50.844;7.978;2024-01-15T03:11:38;97396.69;;;-2.02;100.00
77877;BME280;67251;50.844;7.978;2024-01-15T03:14:04;97407.19;;;-2.02;100.00
77877;BME280;67251;50.844;7.978;2024-01-15T03:16:29;97401.13;;;-2.03;100.00
77877;BME280;67251;50.844;7.978;2024-01-15T03:18:55;97399.47;;;-2.04;100.00
77877;BME280;67251;50.844;7.978;2024-01-15T03:21:20;97391.44;;;-2.02;100.00
77877;BME280;67251;50.844;7.978;2024-01-15T03:23:45;97396.69;;;-2.02;100.00
77877;BME280;67251;50.844;7.978;2024-01-15T03:26:11;97394.25;;;-2.04;100.00
77877;BME280;67251;50.844;7.978;2024-01-15T03:28:36;97397.84;;;-2.05;100.00
77877;BME280;67251;50.844;7.978;2024-01-15T03:31:02;97403.25;;;-2.07;100.00
77877;BME280;67251;50.844;7.978;2024-01-15T03:33:27;97398.84;;;-2.06;100.00
77877;BME280;67251;50.844;7.978;2024-01-15T03:35:52;97403.91;;;-2.04;100.00
77877;BME280;67251;50.844;7.978;2024-01-15T03:38:18;97403.59;;;-2.01;100.00
77877;BME280;67251;50.844;7.978;2024-01-15T03:40:43;97393.25;;;-2.03;100.00
77877;BME280;67251;50.844;7.978;2024-01-15T03:43:08;97386.22;;;-2.02;100.00
77877;BME280;67251;50.844;7.978;2024-01-15T03:45:34;97398.34;;;-2.01;100.00
77877;BME280;67251;50.844;7.978;2024-01-15T03:47:59;97383.59;;;-2.02;100.00
77877;BME280;67251;50.844;7.978;2024-01-15T03:50:25;97392.44;;;-2.03;100.00
77877;BME280;67251;50.844;7.978;2024-01-15T03:52:50;97388.81;;;-2.02;100.00
77877;BME280;67251;50.844;7.978;2024-01-15T03:55:15;97393.41;;;-2.04;100.00
77877;BME280;67251;50.844;7.978;2024-01-15T03:57:41;97397.84;;;-2.05;100.00
77877;BME280;67251;50.844;7.978;2024-01-15T04:00:07;97396.22;;;-2.06;100.00
77877;BME280;67251;50.844;7.978;2024-01-15T04:02:32;97390.16;;;-2.07;100.00
77877;BME280;67251;50.844;7.978;2024-01-15T04:04:58;97390.16;;;-2.07;100.00
77877;BME280;67251;50.844;7.978;2024-01-15T04:07:23;97395.38;;;-2.07;100.00
77877;BME280;67251;50.844;7.978;2024-01-15T04:09:48;97392.59;;;-2.05;100.00
77877;BME280;67251;50.844;7.978;2024-01-15T04:12:14;97393.41;;;-2.04;100.00
77877;BME280;67251;50.844;7.978;2024-01-15T04:14:39;97398.50;;;-2.03;100.00
77877;BME280;67251;50.844;7.978;2024-01-15T04:17:04;97396.56;;;-2.01;100.00
77877;BME280;67251;50.844;7.978;2024-01-15T04:19:30;97398.03;;;-1.98;100.00
77877;BME280;67251;50.844;7.978;2024-01-15T04:21:55;97400.66;;;-1.98;100.00
77877;BME280;67251;50.844;7.978;2024-01-15T04:24:20;97389.34;;;-1.99;100.00
77877;BME280;67251;50.844;7.978;2024-01-15T04:26:47;97394.59;;;-1.99;100.00
77877;BME280;67251;50.844;7.978;2024-01-15T04:29:12;97393.75;;;-1.99;100.00
77877;BME280;67251;50.844;7.978;2024-01-15T04:31:37;97385.91;;;-1.99;100.00
77877;BME280;67251;50.844;7.978;2024-01-15T04:34:03;97386.59;;;-1.97;100.00
77877;BME280;67251;50.844;7.978;2024-01-15T04:36:28;97374.44;;;-1.98;100.00
77877;BME280;67251;50.844;7.978;2024-01-15T04:38:54;97369.53;;;-2.01;100.00
77877;BME280;67251;50.844;7.978;2024-01-15T04:41:19;97384.28;;;-2.00;100.00
77877;BME280;67251;50.844;7.978;2024-01-15T04:43:45;97384.28;;;-2.00;100.00
77877;BME280;67251;50.844;7.978;2024-01-15T04:46:10;97382.47;;;-2.00;100.00
77877;BME280;67251;50.844;7.978;2024-01-15T04:48:36;97370.19;;;-1.99;100.00
77877;BME280;67251;50.844;7.978;2024-01-15T04:51:04;97368.25;;;-1.97;100.00
77877;BME280;67251;50.844;7.978;2024-01-15T04:53:29;97369.19;;;-1.98;100.00
77877;BME280;67251;50.844;7.978;2024-01-15T04:55:55;97361.50;;;-2.00;100.00
77877;BME280;67251;50.844;7.978;2024-01-15T04:58:20;97367.56;;;-1.99;100.00
77877;BME280;67251;50.844;7.978;2024-01-15T05:00:46;97354.44;;;-1.99;100.00
77877;BME280;67251;50.844;7.978;2024-01-15T05:03:11;97359.69;;;-1.99;100.00
77877;BME280;67251;50.844;7.978;2024-01-15T05:05:36;97360.50;;;-1.99;100.00
77877;BME280;67251;50.844;7.978;2024-01-15T05:08:02;97355.28;;;-1.99;100.00
77877;BME280;67251;50.844;7.978;2024-01-15T05:10:27;97357.06;;;-1.99;100.00
77877;BME280;67251;50.844;7.978;2024-01-15T05:12:53;97353.81;;;-2.01;100.00
77877;BME280;67251;50.844;7.978;2024-01-15T05:15:18;97356.44;;;-2.01;100.00
77877;BME280;67251;50.844;7.978;2024-01-15T05:17:43;97355.59;;;-2.02;100.00
77877;BME280;67251;50.844;7.978;2024-01-15T05:20:09;97353.63;;;-2.00;100.00
77877;BME280;67251;50.844;7.978;2024-01-15T05:22:35;97349.03;;;-1.98;100.00
77877;BME280;67251;50.844;7.978;2024-01-15T05:25:00;97342.34;;;-2.00;100.00
77877;BME280;67251;50.844;7.978;2024-01-15T05:27:25;97345.94;;;-2.01;100.00
77877;BME280;67251;50.844;7.978;2024-01-15T05:29:51;97346.06;;;-2.03;100.00
77877;BME280;67251;50.844;7.978;2024-01-15T05:32:16;97347.88;;;-2.03;100.00
77877;BME280;67251;50.844;7.978;2024-01-15T05:34:41;97343.47;;;-2.03;100.00
77877;BME280;67251;50.844;7.978;2024-01-15T05:37:07;97339.03;;;-2.02;100.00
77877;BME280;67251;50.844;7.978;2024-01-15T05:39:32;97340.03;;;-2.03;100.00
77877;BME280;67251;50.844;7.978;2024-01-15T05:41:58;97344.44;;;-2.04;100.00
77877;BME280;67251;50.844;7.978;2024-01-15T05:44:24;97356.72;;;-2.04;100.00
77877;BME280;67251;50.844;7.978;2024-01-15T05:46:49;97347.22;;;-2.06;100.00
77877;BME280;67251;50.844;7.978;2024-01-15T05:49:15;97343.63;;;-2.04;100.00
77877;BME280;67251;50.844;7.978;2024-01-15T05:51:40;97350.50;;;-2.03;100.00
77877;BME280;67251;50.844;7.978;2024-01-15T05:54:05;97340.03;;;-2.03;100.00
77877;BME280;67251;50.844;7.978;2024-01-15T05:56:31;97344.44;;;-2.04;100.00
77877;BME280;67251;50.844;7.978;2024-01-15T05:58:56;97343.63;;;-2.04;100.00
77877;BME280;67251;50.844;7.978;2024-01-15T06:01:22;97347.38;;;-2.07;100.00
77877;BME280;67251;50.844;7.978;2024-01-15T06:03:47;97337.22;;;-2.10;100.00
77877;BME280;67251;50.844;7.978;2024-01-15T06:06:12;97333.78;;;-2.11;100.00
77877;BME280;67251;50.844;7.978;2024-01-15T06:08:38;97335.41;;;-2.10;100.00
77877;BME280;67251;50.844;7.978;2024-01-15T06:11:03;97334.44;;;-2.09;100.00
77877;BME280;67251;50.844;7.978;2024-01-15T06:13:28;97334.28;;;-2.07;100.00
77877;BME280;67251;50.844;7.978;2024-01-15T06:15:54;97336.06;;;-2.08;100.00
77877;BME280;67251;50.844;7.978;2024-01-15T06:18:19;97339.38;;;-2.06;100.00
77877;BME280;67251;50.844;7.978;2024-01-15T06:20:44;97338.38;;;-2.04;100.00
77877;BME280;67251;50.844;7.978;2024-01-15T06:23:10;97324.28;;;-2.03;100.00
77877;BME280;67251;50.844;7.978;2024-01-15T06:25:35;97326.91;;;-2.03;100.00
77877;BME280;67251;50.844;7.978;2024-01-15T06:28:00;97333.78;;;-2.02;100.00
77877;BME280;67251;50.844;7.978;2024-01-15T06:30:26;97322.50;;;-2.03;100.00
77877;BME280;67251;50.844;7.978;2024-01-15T06:32:51;97325.94;;;-2.02;100.00
77877;BME280;67251;50.844;7.978;2024-01-15T06:35:17;97323.00;;;-1.99;100.00
77877;BME280;67251;50.844;7.978;2024-01-15T06:37:42;97315.81;;;-1.97;100.00
77877;BME280;67251;50.844;7.978;2024-01-15T06:40:08;97322.69;;;-1.96;100.00
77877;BME280;67251;50.844;7.978;2024-01-15T06:42:34;97310.72;;;-1.99;100.00
77877;BME280;67251;50.844;7.978;2024-01-15T06:44:59;97313.34;;;-1.99;100.00
77877;BME280;67251;50.844;7.978;2024-01-15T06:47:24;97313.34;;;-1.99;100.00
77877;BME280;67251;50.844;7.978;2024-01-15T06:49:50;97317.75;;;-1.99;100.00
77877;BME280;67251;50.844;7.978;2024-01-15T06:52:17;97316.94;;;-2.00;100.00
77877;BME280;67251;50.844;7.978;2024-01-15T06:54:42;97319.56;;;-2.00;100.00
77877;BME280;67251;50.844;7.978;2024-01-15T06:57:07;97310.06;;;-2.01;100.00
77877;BME280;67251;50.844;7.978;2024-01-15T06:59:34;97313.69;;;-2.02;100.00
77877;BME280;67251;50.844;7.978;2024-01-15T07:02:00;97311.88;;;-2.01;100.00
77877;BME280;67251;50.844;7.978;2024-01-15T07:04:26;97308.44;;;-2.02;100.00
77877;BME280;67251;50.844;7.978;2024-01-15T07:06:51;97314.63;;;-2.03;100.00
77877;BME280;67251;50.844;7.978;2024-01-15T07:09:18;97318.06;;;-2.02;100.00
77877;BME280;67251;50.844;7.978;2024-01-15T07:11:46;97318.06;;;-2.02;100.00
77877;BME280;67251;50.844;7.978;2024-01-15T07:14:12;97316.28;;;-2.02;100.00
77877;BME280;67251;50.844;7.978;2024-01-15T07:16:38;97319.72;;;-2.01;100.00
77877;BME280;67251;50.844;7.978;2024-01-15T07:19:03;97316.13;;;-2.00;100.00
77877;BME280;67251;50.844;7.978;2024-01-15T07:21:29;97321.38;;;-2.00;100.00
77877;BME280;67251;50.844;7.978;2024-01-15T07:23:55;97328.25;;;-1.99;100.00
77877;BME280;67251;50.844;7.978;2024-01-15T07:26:20;97323.00;;;-1.99;100.00
77877;BME280;67251;50.844;7.978;2024-01-15T07:28:46;97321.19;;;-1.99;100.00
77877;BME280;67251;50.844;7.978;2024-01-15T07:31:12;97316.94;;;-2.00;100.00
77877;BME280;67251;50.844;7.978;2024-01-15T07:33:37;97322.19;;;-2.00;100.00
77877;BME280;67251;50.844;7.978;2024-01-15T07:36:02;97315.31;;;-2.01;100.00
77877;BME280;67251;50.844;7.978;2024-01-15T07:38:28;97315.13;;;-1.99;100.00
77877;BME280;67251;50.844;7.978;2024-01-15T07:40:53;97310.72;;;-1.99;100.00
77877;BME280;67251;50.844;7.978;2024-01-15T07:43:19;97306.28;;;-1.98;100.00
77877;BME280;67251;50.844;7.978;2024-01-15T07:45:44;97301.03;;;-1.98;100.00
77877;BME280;67251;50.844;7.978;2024-01-15T07:48:10;97308.91;;;-1.98;100.00
77877;BME280;67251;50.844;7.978;2024-01-15T07:50:36;97311.41;;;-1.97;100.00
77877;BME280;67251;50.844;7.978;2024-01-15T07:53:01;97306.97;;;-1.96;100.00
77877;BME280;67251;50.844;7.978;2024-01-15T07:55:26;97311.06;;;-1.94;100.00
77877;BME280;67251;50.844;7.978;2024-01-15T07:57:52;97312.72;;;-1.93;100.00
77877;BME280;67251;50.844;7.978;2024-01-15T08:00:18;97308.28;;;-1.92;100.00
77877;BME280;67251;50.844;7.978;2024-01-15T08:02:44;97307.94;;;-1.89;100.00
77877;BME280;67251;50.844;7.978;2024-01-15T08:05:09;97302.56;;;-1.88;100.00
77877;BME280;67251;50.844;7.978;2024-01-15T08:07:35;97301.41;;;-1.85;100.00
77877;BME280;67251;50.844;7.978;2024-01-15T08:10:00;97300.41;;;-1.84;100.00
77877;BME280;67251;50.844;7.978;2024-01-15T08:12:25;97295.19;;;-1.76;100.00
77877;BME280;67251;50.844;7.978;2024-01-15T08:14:51;97290.47;;;-1.64;100.00
77877;BME280;67251;50.844;7.978;2024-01-15T08:17:16;97287.03;;;-1.57;100.00
77877;BME280;67251;50.844;7.978;2024-01-15T08:19:42;97283.28;;;-1.54;100.00
77877;BME280;67251;50.844;7.978;2024-01-15T08:22:08;97285.88;;;-1.54;100.00
77877;BME280;67251;50.844;7.978;2024-01-15T08:24:33;97291.94;;;-1.53;100.00
77877;BME280;67251;50.844;7.978;2024-01-15T08:26:58;97283.91;;;-1.52;100.00
77877;BME280;67251;50.844;7.978;2024-01-15T08:29:24;97293.59;;;-1.52;100.00
77877;BME280;67251;50.844;7.978;2024-01-15T08:31:50;97297.03;;;-1.52;100.00
77877;BME280;67251;50.844;7.978;2024-01-15T08:34:15;97281.97;;;-1.50;100.00
77877;BME280;67251;50.844;7.978;2024-01-15T08:36:41;97287.03;;;-1.48;100.00
77877;BME280;67251;50.844;7.978;2024-01-15T08:39:06;97292.44;;;-1.50;100.00
77877;BME280;67251;50.844;7.978;2024-01-15T08:41:32;97287.22;;;-1.50;100.00
77877;BME280;67251;50.844;7.978;2024-01-15T08:43:58;97279.97;;;-1.48;100.00
77877;BME280;67251;50.844;7.978;2024-01-15T08:46:23;97287.34;;;-1.43;100.00
77877;BME280;67251;50.844;7.978;2024-01-15T08:48:49;97280.47;;;-1.44;100.00
77877;BME280;67251;50.844;7.978;2024-01-15T08:51:15;97283.25;;;-1.46;100.00
77877;BME280;67251;50.844;7.978;2024-01-15T08:53:40;97288.34;;;-1.44;100.00
77877;BME280;67251;50.844;7.978;2024-01-15T08:56:05;97288.69;;;-1.39;100.00
77877;BME280;67251;50.844;7.978;2024-01-15T08:58:31;97283.25;;;-1.38;100.00
77877;BME280;67251;50.844;7.978;2024-01-15T09:00:56;97283.94;;;-1.36;100.00
77877;BME280;67251;50.844;7.978;2024-01-15T09:03:21;97283.09;;;-1.36;100.00
77877;BME280;67251;50.844;7.978;2024-01-15T09:05:47;97284.06;;;-1.37;100.00
77877;BME280;67251;50.844;7.978;2024-01-15T09:08:15;97289.81;;;-1.34;100.00
77877;BME280;67251;50.844;7.978;2024-01-15T09:10:40;97284.41;;;-1.32;100.00
77877;BME280;67251;50.844;7.978;2024-01-15T09:13:06;97288.34;;;-1.36;100.00
77877;BME280;67251;50.844;7.978;2024-01-15T09:15:31;97290.31;;;-1.38;100.00
77877;BME280;67251;50.844;7.978;2024-01-15T09:17:57;97290.63;;;-1.41;100.00
77877;BME280;67251;50.844;7.978;2024-01-15T09:20:24;97292.94;;;-1.38;100.00
77877;BME280;67251;50.844;7.978;2024-01-15T09:22:51;97287.50;;;-1.29;100.00
77877;BME280;67251;50.844;7.978;2024-01-15T09:25:16;97295.06;;;-1.25;100.00
77877;BME280;67251;50.844;7.978;2024-01-15T09:27:42;97302.28;;;-1.27;100.00
77877;BME280;67251;50.844;7.978;2024-01-15T09:30:07;97299.50;;;-1.34;100.00
77877;BME280;67251;50.844;7.978;2024-01-15T09:32:33;97295.56;;;-1.38;100.00
77877;BME280;67251;50.844;7.978;2024-01-15T09:34:59;97300.81;;;-1.38;100.00
77877;BME280;67251;50.844;7.978;2024-01-15T09:37:24;97298.84;;;-1.36;100.00
77877;BME280;67251;50.844;7.978;2024-01-15T09:39:50;97282.75;;;-1.33;100.00
77877;BME280;67251;50.844;7.978;2024-01-15T09:42:16;97289.50;;;-1.31;100.00
77877;BME280;67251;50.844;7.978;2024-01-15T09:44:41;97289.19;;;-1.36;100.00
77877;BME280;67251;50.844;7.978;2024-01-15T09:47:07;97298.38;;;-1.32;100.00
77877;BME280;67251;50.844;7.978;2024-01-15T09:49:33;97297.69;;;-1.34;100.00
77877;BME280;67251;50.844;7.978;2024-01-15T09:51:58;97299.00;;;-1.30;100.00
77877;BME280;67251;50.844;7.978;2024-01-15T09:54:24;97293.75;;;-1.30;100.00
77877;BME280;67251;50.844;7.978;2024-01-15T09:56:51;97302.75;;;-1.24;100.00
77877;BME280;67251;50.844;7.978;2024-01-15T09:59:18;97302.44;;;-1.21;100.00
77877;BME280;67251;50.844;7.978;2024-01-15T10:01:44;97300.63;;;-1.20;100.00
77877;BME280;67251;50.844;7.978;2024-01-15T10:04:11;97293.44;;;-1.26;100.00
77877;BME280;67251;50.844;7.978;2024-01-15T10:06:38;97282.63;;;-1.32;100.00
77877;BME280;67251;50.844;7.978;2024-01-15T10:09:05;97283.44;;;-1.31;100.00
77877;BME280;67251;50.844;7.978;2024-01-15T10:11:30;97286.69;;;-1.29;100.00
77877;BME280;67251;50.844;7.978;2024-01-15T10:13:57;97275.22;;;-1.28;100.00
77877;BME280;67251;50.844;7.978;2024-01-15T10:16:22;97268.00;;;-1.26;100.00
77877;BME280;67251;50.844;7.978;2024-01-15T10:18:49;97266.84;;;-1.23;100.00
77877;BME280;67251;50.844;7.978;2024-01-15T10:21:14;97266.03;;;-1.32;100.00
77877;BME280;67251;50.844;7.978;2024-01-15T10:23:41;97261.63;;;-1.40;100.00
77877;BME280;67251;50.844;7.978;2024-01-15T10:26:06;97269.63;;;-1.41;100.00
77877;BME280;67251;50.844;7.978;2024-01-15T10:28:32;97263.09;;;-1.45;100.00
77877;BME280;67251;50.844;7.978;2024-01-15T10:30:58;97266.03;;;-1.48;100.00
77877;BME280;67251;50.844;7.978;2024-01-15T10:33:25;97250.81;;;-1.45;100.00
77877;BME280;67251;50.844;7.978;2024-01-15T10:35:54;97254.25;;;-1.44;100.00
77877;BME280;67251;50.844;7.978;2024-01-15T10:38:23;97252.28;;;-1.34;100.00
77877;BME280;67251;50.844;7.978;2024-01-15T10:40:56;97244.03;;;-1.15;100.00
77877;BME280;67251;50.844;7.978;2024-01-15T10:43:22;97253.41;;;-1.12;100.00
77877;BME280;67251;50.844;7.978;2024-01-15T10:45:50;97250.28;;;-1.16;100.00
77877;BME280;67251;50.844;7.978;2024-01-15T10:48:18;97254.72;;;-1.24;100.00
77877;BME280;67251;50.844;7.978;2024-01-15T10:50:48;97253.09;;;-1.34;100.00
77877;BME280;67251;50.844;7.978;2024-01-15T10:53:15;97253.56;;;-1.38;100.00
77877;BME280;67251;50.844;7.978;2024-01-15T10:55:42;97257.84;;;-1.45;100.00
77877;BME280;67251;50.844;7.978;2024-01-15T10:58:07;97257.38;;;-1.41;100.00
77877;BME280;67251;50.844;7.978;2024-01-15T11:00:34;97254.56;;;-1.31;100.00
77877;BME280;67251;50.844;7.978;2024-01-15T11:03:01;97255.22;;;-1.21;100.00
77877;BME280;67251;50.844;7.978;2024-01-15T11:05:28;97257.84;;;-1.21;100.00
77877;BME280;67251;50.844;7.978;2024-01-15T11:07:58;97258.97;;;-1.15;100.00
77877;BME280;67251;50.844;7.978;2024-01-15T11:10:38;97263.91;;;-1.20;100.00
77877;BME280;67251;50.844;7.978;2024-01-15T11:13:04;97268.84;;;-1.25;100.00
77877;BME280;67251;50.844;7.978;2024-01-15T11:15:30;97261.44;;;-1.22;100.00
77877;BME280;67251;50.844;7.978;2024-01-15T11:18:00;97268.16;;;-1.19;100.00
77877;BME280;67251;50.844;7.978;2024-01-15T11:20:30;97268.34;;;-1.21;100.00
77877;BME280;67251;50.844;7.978;2024-01-15T11:22:57;97276.84;;;-1.19;100.00
77877;BME280;67251;50.844;7.978;2024-01-15T11:25:34;97269.44;;;-0.99;100.00
77877;BME280;67251;50.844;7.978;2024-01-15T11:28:03;97268.59;;;-0.83;100.00
77877;BME280;67251;50.844;7.978;2024-01-15T11:30:38;97268.88;;;-0.70;100.00
77877;BME280;67251;50.844;7.978;2024-01-15T11:33:38;97269.16;;;-0.57;100.00
77877;BME280;67251;50.844;7.978;2024-01-15T11:36:13;97276.69;;;-0.45;100.00
77877;BME280;67251;50.844;7.978;2024-01-15T11:38:39;97274.22;;;-0.47;100.00
77877;BME280;67251;50.844;7.978;2024-01-15T11:41:13;97273.50;;;-0.33;100.00
77877;BME280;67251;50.844;7.978;2024-01-15T11:43:40;97269.91;;;-0.40;100.00
77877;BME280;67251;50.844;7.978;2024-01-15T11:46:10;97281.13;;;-0.46;100.00
77877;BME280;67251;50.844;7.978;2024-01-15T11:48:50;97274.88;;;-0.53;100.00
77877;BME280;67251;50.844;7.978;2024-01-15T11:51:21;97283.16;;;-0.64;100.00
77877;BME280;67251;50.844;7.978;2024-01-15T11:53:48;97283.16;;;-0.64;100.00
77877;BME280;67251;50.844;7.978;2024-01-15T11:56:16;97280.00;;;-0.60;100.00
77877;BME280;67251;50.844;7.978;2024-01-15T11:58:42;97286.25;;;-0.61;100.00
77877;BME280;67251;50.844;7.978;2024-01-15T12:01:09;97289.22;;;-0.64;100.00
77877;BME280;67251;50.844;7.978;2024-01-15T12:03:35;97296.09;;;-0.63;100.00
77877;BME280;67251;50.844;7.978;2024-01-15T12:06:00;97297.69;;;-0.45;100.00
77877;BME280;67251;50.844;7.978;2024-01-15T12:08:26;97290.13;;;-0.40;100.00
77877;BME280;67251;50.844;7.978;2024-01-15T12:10:52;97293.50;;;-0.23;100.00
77877;BME280;67251;50.844;7.978;2024-01-15T12:13:19;97295.97;;;-0.22;100.00
77877;BME280;67251;50.844;7.978;2024-01-15T12:15:46;97297.91;;;-0.16;100.00
77877;BME280;67251;50.844;7.978;2024-01-15T12:18:13;97293.84;;;0.05;100.00
77877;BME280;67251;50.844;7.978;2024-01-15T12:20:40;97292.91;;;-0.03;100.00
77877;BME280;67251;50.844;7.978;2024-01-15T12:23:06;97292.31;;;-0.13;100.00
77877;BME280;67251;50.844;7.978;2024-01-15T12:25:32;97291.75;;;-0.39;100.00
77877;BME280;67251;50.844;7.978;2024-01-15T12:27:58;97288.25;;;-0.71;100.00
77877;BME280;67251;50.844;7.978;2024-01-15T12:30:26;97296.66;;;-0.84;100.00
77877;BME280;67251;50.844;7.978;2024-01-15T12:32:51;97302.06;;;-0.85;100.00
77877;BME280;67251;50.844;7.978;2024-01-15T12:35:17;97296.81;;;-0.85;100.00
77877;BME280;67251;50.844;7.978;2024-01-15T12:37:43;97297.66;;;-0.85;100.00
77877;BME280;67251;50.844;7.978;2024-01-15T12:40:10;97294.53;;;-0.88;100.00
77877;BME280;67251;50.844;7.978;2024-01-15T12:42:36;97294.53;;;-0.88;100.00
77877;BME280;67251;50.844;7.978;2024-01-15T12:45:03;97295.53;;;-0.89;100.00
77877;BME280;67251;50.844;7.978;2024-01-15T12:47:30;97300.75;;;-0.81;100.00
77877;BME280;67251;50.844;7.978;2024-01-15T12:49:55;97296.13;;;-0.71;100.00